Skip Navigation LinksHome page > Weather > Current weather Skip Navigation Links

Current Weather

Lawrence J Timmerman, Milwaukee

For information only: do not use for flight planning or navigation.
Latest weather
Observation time Friday, August 14, 2020 10:45 AM CDT
Local time Friday, August 14, 2020 11:31 AM CDT
Flight conditions Visual Meteorological Conditions
Winds
Wind direction East-Southeast (110°)
Wind speed 6 mph
Visibility 10 mi.
Sky condition
Ceiling unlimited
Sky clear
Temperature 79°F
Dewpoint 61°F
Altimeter 30.07 in.Hg
Derived measurements
Relative humidity 54%
Heat index 79°F
Density altitude 2098 ft.
METAR KMWC 141545Z 11005KT 10SM SKC 26/16 A3007

Settings

Location code

InnerDrive.Weather 4.0.6770.0 Release CLR 4.0.30319.42000
Copyright ©2018 Inner Drive Technology. All rights reserved. Portions Copyright ©1986-2018 David Braverman.

Find weather

Site navigation


Skip Navigation Links

Place info

Page info

PayPal - The safer, easier way to pay online!

Return home.

Copyright ©2020 Inner Drive Technology. Purveyors of fine, hand-crafted computer software. Page printed 2020-08-14T16:31:20 UTC.